createdAt,value
2022-12-15T00:00:52.014Z,87.98
2022-12-15T00:03:12.663Z,88.35
2022-12-15T00:05:33.461Z,88.37
2022-12-15T00:07:54.188Z,88.58
2022-12-15T00:10:16.006Z,88.12
2022-12-15T00:12:36.928Z,88.13
2022-12-15T00:14:57.565Z,88.57
2022-12-15T00:17:18.345Z,88.56
2022-12-15T00:19:38.741Z,88.33
2022-12-15T00:21:59.548Z,88.47
2022-12-15T00:24:20.090Z,87.91
2022-12-15T00:26:42.121Z,87.77
2022-12-15T00:29:02.924Z,88.02
2022-12-15T00:31:23.874Z,88.24
2022-12-15T00:33:44.581Z,87.63
2022-12-15T00:36:17.415Z,87.81
2022-12-15T00:38:37.981Z,88.32
2022-12-15T00:40:41.000Z,87.86
2022-12-15T00:42:45.286Z,87.95
2022-12-15T00:44:52.804Z,88.17
2022-12-15T00:46:54.906Z,88.21
2022-12-15T00:48:58.381Z,88.51
2022-12-15T00:51:00.306Z,88.44
2022-12-15T00:53:20.596Z,88.14
2022-12-15T00:55:43.915Z,87.98
2022-12-15T00:58:07.902Z,88.29
2022-12-15T01:00:29.644Z,87.99
2022-12-15T01:02:50.721Z,87.27
2022-12-15T01:05:11.471Z,88.08
2022-12-15T01:07:31.843Z,87.72
2022-12-15T01:09:52.526Z,88.10
2022-12-15T01:12:13.429Z,88.39
2022-12-15T01:14:35.345Z,88.77
2022-12-15T01:16:56.041Z,88.70
2022-12-15T01:19:16.748Z,88.33
2022-12-15T01:21:24.081Z,88.84
2022-12-15T01:23:28.576Z,88.49
2022-12-15T01:25:31.847Z,88.52
2022-12-15T01:27:35.030Z,88.43
2022-12-15T01:29:39.462Z,87.97
2022-12-15T01:31:43.999Z,88.05
2022-12-15T01:33:47.314Z,88.95
2022-12-15T01:35:57.147Z,88.65
2022-12-15T01:38:00.168Z,88.50
2022-12-15T01:40:20.847Z,88.12
2022-12-15T01:42:24.255Z,88.68
2022-12-15T01:44:27.247Z,88.12
2022-12-15T01:46:33.245Z,88.25
2022-12-15T01:48:40.341Z,88.83
2022-12-15T01:50:48.323Z,88.75
2022-12-15T01:52:51.656Z,88.69
2022-12-15T01:54:56.672Z,88.52
2022-12-15T01:57:03.554Z,88.87
2022-12-15T01:59:09.290Z,88.68
2022-12-15T02:01:12.604Z,88.85
2022-12-15T02:03:17.284Z,88.84
2022-12-15T02:05:21.828Z,88.76
2022-12-15T02:07:39.123Z,88.44
2022-12-15T02:09:43.259Z,89.18
2022-12-15T02:11:58.184Z,88.55
2022-12-15T02:14:03.433Z,89.12
2022-12-15T02:16:14.869Z,87.96
2022-12-15T02:18:23.725Z,88.06
2022-12-15T02:20:42.831Z,88.00
2022-12-15T02:23:03.529Z,87.81
2022-12-15T02:25:31.520Z,87.88
2022-12-15T02:27:46.382Z,88.22
2022-12-15T02:30:26.575Z,88.50
2022-12-15T02:32:32.998Z,87.89
2022-12-15T02:34:41.254Z,88.38
2022-12-15T02:36:46.437Z,88.45
2022-12-15T02:38:49.667Z,88.05
2022-12-15T02:40:59.159Z,88.67
2022-12-15T02:43:05.761Z,87.99
2022-12-15T02:45:11.102Z,88.14
2022-12-15T02:47:28.578Z,88.22
2022-12-15T02:49:40.652Z,88.10
2022-12-15T02:51:50.959Z,88.23
2022-12-15T02:54:14.041Z,88.42
2022-12-15T02:56:22.837Z,88.75
2022-12-15T02:58:29.358Z,87.91
2022-12-15T03:00:37.124Z,88.17
2022-12-15T03:02:43.496Z,88.46
2022-12-15T03:04:48.114Z,88.63
2022-12-15T03:07:00.787Z,88.03
2022-12-15T03:09:05.115Z,88.34
2022-12-15T03:11:08.425Z,88.12
2022-12-15T03:13:11.520Z,88.51
2022-12-15T03:15:15.086Z,88.20
2022-12-15T03:17:18.164Z,88.15
2022-12-15T03:19:21.345Z,88.51
2022-12-15T03:21:25.765Z,88.05
2022-12-15T03:23:29.490Z,88.00
2022-12-15T03:25:32.928Z,88.39
2022-12-15T03:27:37.838Z,87.37
2022-12-15T03:29:41.080Z,87.74
2022-12-15T03:31:44.352Z,87.72
2022-12-15T03:33:47.578Z,87.95
2022-12-15T03:35:51.214Z,88.20
2022-12-15T03:37:55.668Z,87.90
2022-12-15T03:39:58.716Z,87.86
2022-12-15T03:42:02.495Z,88.16
2022-12-15T03:44:05.960Z,87.92
2022-12-15T03:46:09.894Z,87.66
2022-12-15T03:48:13.080Z,88.02
2022-12-15T03:50:18.601Z,87.85
2022-12-15T03:52:22.141Z,87.72
2022-12-15T03:54:26.597Z,87.82
2022-12-15T03:56:29.642Z,88.05
2022-12-15T03:58:32.722Z,87.85
2022-12-15T04:00:35.762Z,87.81
2022-12-15T04:02:38.916Z,87.66
2022-12-15T04:04:42.078Z,87.24
2022-12-15T04:06:45.348Z,87.51
2022-12-15T04:08:49.779Z,87.79
2022-12-15T04:10:55.024Z,87.54
2022-12-15T04:12:59.520Z,87.38
2022-12-15T04:15:02.576Z,87.23
2022-12-15T04:17:05.974Z,87.72
2022-12-15T04:19:26.832Z,87.89
2022-12-15T04:21:29.974Z,87.76
2022-12-15T04:23:33.331Z,87.28
2022-12-15T04:25:55.498Z,87.32
2022-12-15T04:28:17.515Z,87.17
2022-12-15T04:30:38.197Z,87.58
2022-12-15T04:32:58.993Z,86.27
2022-12-15T04:35:19.867Z,86.56
2022-12-15T04:37:40.958Z,86.45
2022-12-15T04:40:03.745Z,85.72
2022-12-15T04:42:24.942Z,85.22
2022-12-15T04:44:49.999Z,85.08
2022-12-15T04:47:11.054Z,84.50
2022-12-15T04:49:31.758Z,85.20
2022-12-15T04:51:52.479Z,85.20
2022-12-15T04:54:13.453Z,85.05
2022-12-15T04:56:34.824Z,85.26
2022-12-15T04:58:55.220Z,85.12
2022-12-15T05:01:16.955Z,84.90
2022-12-15T05:03:38.074Z,84.83
2022-12-15T05:05:58.804Z,85.08
2022-12-15T05:08:19.290Z,85.49
2022-12-15T05:10:40.258Z,85.22
2022-12-15T05:13:00.913Z,85.41
2022-12-15T05:15:21.549Z,85.32
2022-12-15T05:17:43.792Z,84.74
2022-12-15T05:20:04.288Z,84.41
2022-12-15T05:22:25.183Z,84.72
2022-12-15T05:24:45.812Z,84.44
2022-12-15T05:27:06.292Z,84.80
2022-12-15T05:29:27.224Z,85.04
2022-12-15T05:31:52.648Z,84.88
2022-12-15T05:34:04.531Z,84.27
2022-12-15T05:36:32.497Z,84.09
2022-12-15T05:38:38.189Z,84.32
2022-12-15T05:40:41.359Z,83.90
2022-12-15T05:42:44.427Z,84.15
2022-12-15T05:44:53.704Z,84.20
2022-12-15T05:46:57.138Z,84.20
2022-12-15T05:49:03.972Z,83.98
2022-12-15T05:51:08.187Z,84.25
2022-12-15T05:53:13.962Z,83.93
2022-12-15T05:55:17.944Z,84.32
2022-12-15T05:57:21.042Z,83.97
2022-12-15T05:59:24.158Z,84.28
2022-12-15T06:01:28.064Z,84.30
2022-12-15T06:03:31.766Z,84.28
2022-12-15T06:05:36.567Z,83.99
2022-12-15T06:07:39.692Z,84.12
2022-12-15T06:09:43.603Z,83.69
2022-12-15T06:11:46.986Z,83.42
2022-12-15T06:13:50.645Z,83.42
2022-12-15T06:15:58.302Z,83.04
2022-12-15T06:18:01.644Z,83.84
2022-12-15T06:20:05.342Z,83.69
2022-12-15T06:22:11.185Z,84.23
2022-12-15T06:24:14.258Z,83.76
2022-12-15T06:26:20.495Z,84.28
2022-12-15T06:28:25.090Z,83.80
2022-12-15T06:30:28.248Z,84.15
2022-12-15T06:32:31.421Z,84.58
2022-12-15T06:34:34.594Z,84.38
2022-12-15T06:36:37.985Z,84.67
2022-12-15T06:38:43.654Z,85.19
2022-12-15T06:40:46.833Z,85.13
2022-12-15T06:42:50.012Z,85.25
2022-12-15T06:44:53.112Z,85.62
2022-12-15T06:46:56.280Z,85.44
2022-12-15T06:49:00.345Z,85.46
2022-12-15T06:51:05.410Z,84.77
2022-12-15T06:53:08.628Z,84.97
2022-12-15T06:55:14.246Z,84.93
2022-12-15T06:57:17.423Z,85.43
2022-12-15T06:59:20.711Z,85.45
2022-12-15T07:01:24.952Z,85.43
2022-12-15T07:03:28.508Z,85.45
2022-12-15T07:05:32.019Z,85.63
2022-12-15T07:07:35.261Z,85.73
2022-12-15T07:09:38.420Z,85.25
2022-12-15T07:11:51.327Z,85.73
2022-12-15T07:13:54.951Z,85.80
2022-12-15T07:16:00.644Z,85.31
2022-12-15T07:18:04.559Z,84.82
2022-12-15T07:20:08.870Z,84.91
2022-12-15T07:22:12.284Z,84.54
2022-12-15T07:24:15.549Z,84.18
2022-12-15T07:26:18.898Z,83.90
2022-12-15T07:28:25.969Z,84.03
2022-12-15T07:30:33.599Z,83.46
2022-12-15T07:32:40.199Z,83.74
2022-12-15T07:34:43.503Z,83.82
2022-12-15T07:36:52.086Z,83.87
2022-12-15T07:39:00.913Z,83.44
2022-12-15T07:41:05.690Z,83.43
2022-12-15T07:43:09.120Z,83.71
2022-12-15T07:45:14.254Z,83.49
2022-12-15T07:47:17.474Z,83.43
2022-12-15T07:49:21.665Z,83.74
2022-12-15T07:51:24.862Z,84.04
2022-12-15T07:53:29.080Z,84.02
2022-12-15T07:55:57.606Z,83.85
2022-12-15T07:57:55.979Z,83.91
2022-12-15T07:59:59.336Z,83.68
2022-12-15T08:02:04.623Z,83.72
2022-12-15T08:04:08.214Z,82.75
2022-12-15T08:06:13.446Z,82.90
2022-12-15T08:08:18.404Z,82.96
2022-12-15T08:10:21.633Z,82.16
2022-12-15T08:12:24.910Z,82.49
2022-12-15T08:14:28.790Z,82.46
2022-12-15T08:16:34.614Z,81.78
2022-12-15T08:18:40.041Z,82.09
2022-12-15T08:20:43.372Z,82.17
2022-12-15T08:22:46.798Z,81.82
2022-12-15T08:24:50.204Z,82.26
2022-12-15T08:26:53.622Z,81.92
2022-12-15T08:29:11.898Z,82.30
2022-12-15T08:31:22.488Z,82.13
2022-12-15T08:33:25.920Z,82.32
2022-12-15T08:35:55.295Z,83.11
2022-12-15T08:37:53.877Z,82.61
2022-12-15T08:39:57.255Z,83.57
2022-12-15T08:42:03.193Z,83.12
2022-12-15T08:44:06.565Z,83.61
2022-12-15T08:46:10.059Z,82.88
2022-12-15T08:48:13.326Z,82.87
2022-12-15T08:50:17.219Z,83.30
2022-12-15T08:52:21.863Z,82.76
2022-12-15T08:54:25.080Z,82.58
2022-12-15T08:56:30.336Z,82.67
2022-12-15T08:58:33.884Z,82.10
2022-12-15T09:00:37.047Z,82.50
2022-12-15T09:02:40.486Z,82.33
2022-12-15T09:04:45.325Z,82.21
2022-12-15T09:06:50.803Z,81.52
2022-12-15T09:08:57.632Z,81.99
2022-12-15T09:11:01.364Z,81.87
2022-12-15T09:13:04.583Z,82.34
2022-12-15T09:15:08.700Z,82.20
2022-12-15T09:17:12.835Z,81.81
2022-12-15T09:19:16.156Z,81.68
2022-12-15T09:21:22.432Z,81.10
2022-12-15T09:23:25.529Z,81.45
2022-12-15T09:25:30.240Z,81.68
2022-12-15T09:27:35.027Z,81.38
2022-12-15T09:29:38.268Z,81.01
2022-12-15T09:31:44.697Z,81.28
2022-12-15T09:33:48.175Z,81.75
2022-12-15T09:35:51.736Z,81.68
2022-12-15T09:37:55.004Z,81.35
2022-12-15T09:39:58.205Z,80.83
2022-12-15T09:42:02.882Z,81.71
2022-12-15T09:44:10.991Z,81.67
2022-12-15T09:46:22.143Z,81.02
2022-12-15T09:48:26.271Z,81.22
2022-12-15T09:50:36.057Z,81.34
2022-12-15T09:52:50.736Z,81.30
2022-12-15T09:54:54.782Z,81.26
2022-12-15T09:57:04.498Z,81.17
2022-12-15T09:59:20.626Z,80.98
2022-12-15T10:01:29.269Z,81.15
2022-12-15T10:03:42.271Z,80.78
2022-12-15T10:06:15.451Z,81.14
2022-12-15T10:08:20.736Z,80.55
2022-12-15T10:10:27.199Z,80.76
2022-12-15T10:12:34.382Z,80.55
2022-12-15T10:14:41.109Z,80.85
2022-12-15T10:16:52.816Z,80.82
2022-12-15T10:19:09.216Z,80.22
2022-12-15T10:21:14.767Z,80.39
2022-12-15T10:23:19.243Z,80.69
2022-12-15T10:28:04.787Z,80.98
2022-12-15T10:30:11.617Z,81.29
2022-12-15T10:32:18.851Z,81.50
2022-12-15T10:34:27.430Z,81.61
2022-12-15T10:36:30.783Z,81.51
2022-12-15T10:38:50.864Z,81.43
2022-12-15T10:41:02.417Z,81.49
2022-12-15T10:43:14.525Z,81.72
2022-12-15T10:45:36.765Z,81.49
2022-12-15T10:47:40.065Z,81.23
2022-12-15T10:49:43.393Z,81.24
2022-12-15T10:51:50.722Z,81.20
2022-12-15T10:53:55.250Z,81.27
2022-12-15T10:56:01.460Z,81.59
2022-12-15T10:58:21.597Z,81.22
2022-12-15T11:00:29.948Z,80.81
2022-12-15T11:02:36.692Z,80.78
2022-12-15T11:04:40.549Z,80.43
2022-12-15T11:06:44.097Z,80.47
2022-12-15T11:08:49.678Z,80.52
2022-12-15T11:11:45.097Z,80.63
2022-12-15T11:14:11.410Z,80.37
2022-12-15T11:16:19.950Z,80.67
2022-12-15T11:18:29.048Z,81.22
2022-12-15T11:20:36.076Z,81.34
2022-12-15T11:22:43.424Z,81.23
2022-12-15T11:25:06.355Z,81.49
2022-12-15T11:27:22.375Z,81.26
2022-12-15T11:29:30.103Z,81.19
2022-12-15T11:31:38.420Z,80.97
2022-12-15T11:33:41.582Z,81.41
2022-12-15T11:35:54.915Z,81.67
2022-12-15T11:38:01.902Z,81.57
2022-12-15T11:40:34.810Z,81.45
2022-12-15T11:42:53.713Z,81.21
2022-12-15T11:45:04.498Z,80.62
2022-12-15T11:47:14.529Z,81.61
2022-12-15T11:49:45.422Z,81.56
2022-12-15T11:51:53.168Z,81.10
2022-12-15T11:54:06.783Z,81.39
2022-12-15T11:56:18.196Z,82.09
2022-12-15T11:58:37.768Z,81.62
2022-12-15T12:00:44.625Z,81.69
2022-12-15T12:02:59.778Z,81.42
2022-12-15T12:05:22.464Z,81.54
2022-12-15T12:07:34.603Z,82.11
2022-12-15T12:09:48.592Z,82.79
2022-12-15T12:11:55.484Z,82.54
2022-12-15T12:14:26.390Z,82.48
2022-12-15T12:16:37.708Z,81.99
2022-12-15T12:18:43.689Z,81.59
2022-12-15T12:20:51.508Z,81.65
2022-12-15T12:23:03.164Z,81.99
2022-12-15T12:25:12.261Z,82.20
2022-12-15T12:27:23.725Z,82.13
2022-12-15T12:29:31.155Z,81.97
2022-12-15T12:31:42.005Z,82.07
2022-12-15T12:33:48.600Z,81.77
2022-12-15T12:35:55.169Z,81.41
2022-12-15T12:38:04.134Z,81.52
2022-12-15T12:40:17.640Z,82.26
2022-12-15T12:42:26.112Z,81.73
2022-12-15T12:44:33.410Z,82.03
2022-12-15T12:46:42.375Z,81.27
2022-12-15T12:49:14.151Z,82.09
2022-12-15T12:51:25.076Z,81.06
2022-12-15T12:53:34.042Z,81.40
2022-12-15T12:55:40.664Z,81.76
2022-12-15T12:57:44.668Z,81.55
2022-12-15T12:59:51.244Z,81.75
2022-12-15T13:01:56.253Z,81.11
2022-12-15T13:04:13.435Z,81.15
2022-12-15T13:06:43.818Z,81.42
2022-12-15T13:08:51.678Z,81.08
2022-12-15T13:10:56.169Z,81.55
2022-12-15T13:13:00.030Z,81.28
2022-12-15T13:15:07.707Z,80.90
2022-12-15T13:17:27.197Z,80.79
2022-12-15T13:20:04.273Z,81.47
2022-12-15T13:22:24.534Z,81.30
2022-12-15T13:24:33.305Z,80.79
2022-12-15T13:26:36.512Z,80.81
2022-12-15T13:28:45.898Z,80.56
2022-12-15T13:31:27.779Z,79.47
2022-12-15T13:33:31.616Z,80.52
2022-12-15T13:35:35.186Z,80.00
2022-12-15T13:37:46.725Z,80.57
2022-12-15T13:39:57.618Z,80.63
2022-12-15T13:42:35.000Z,79.96
2022-12-15T13:44:41.405Z,80.01
2022-12-15T13:46:46.866Z,80.81
2022-12-15T13:48:54.527Z,80.79
2022-12-15T13:51:03.775Z,80.60
2022-12-15T13:53:30.841Z,81.11
2022-12-15T13:55:38.820Z,81.19
2022-12-15T13:57:50.015Z,81.64
2022-12-15T13:59:54.530Z,80.80
2022-12-15T14:01:57.944Z,80.97
2022-12-15T14:04:08.074Z,81.08
2022-12-15T14:06:15.297Z,81.07
2022-12-15T14:08:19.972Z,81.46
2022-12-15T14:10:26.672Z,81.17
2022-12-15T14:12:34.790Z,81.83
2022-12-15T14:14:45.557Z,81.97
2022-12-15T14:16:59.306Z,82.35
2022-12-15T14:19:14.621Z,82.27
2022-12-15T14:21:23.027Z,82.13
2022-12-15T14:23:28.945Z,81.78
2022-12-15T14:25:32.746Z,81.71
2022-12-15T14:27:37.530Z,82.06
2022-12-15T14:29:42.057Z,81.86
2022-12-15T14:31:46.371Z,82.38
2022-12-15T14:33:54.425Z,82.21
2022-12-15T14:35:59.383Z,81.89
2022-12-15T14:38:07.508Z,81.94
2022-12-15T14:40:15.908Z,82.42
2022-12-15T14:42:20.986Z,82.76
2022-12-15T14:44:38.093Z,82.64
2022-12-15T14:46:47.086Z,82.79
2022-12-15T14:48:56.825Z,82.47
2022-12-15T14:51:01.778Z,82.63
2022-12-15T14:53:07.732Z,83.04
2022-12-15T14:55:31.966Z,83.56
2022-12-15T14:57:42.094Z,83.34
2022-12-15T14:59:49.848Z,83.73
2022-12-15T15:02:00.522Z,83.73
2022-12-15T15:03:03.980Z,80.83
2022-12-15T15:04:05.570Z,83.43
2022-12-15T15:06:18.169Z,83.65
2022-12-15T15:08:28.519Z,83.53
2022-12-15T15:10:32.229Z,83.94
2022-12-15T15:12:43.648Z,83.92
2022-12-15T15:14:55.739Z,83.56
2022-12-15T15:17:05.069Z,82.98
2022-12-15T15:19:08.511Z,83.21
2022-12-15T15:21:25.047Z,83.57
2022-12-15T15:23:28.213Z,84.21
2022-12-15T15:25:41.328Z,83.54
2022-12-15T15:27:44.755Z,83.61
2022-12-15T15:29:50.234Z,83.83
2022-12-15T15:31:54.333Z,83.71
2022-12-15T15:33:58.956Z,83.50
2022-12-15T15:36:04.373Z,83.04
2022-12-15T15:38:23.140Z,83.41
2022-12-15T15:40:26.667Z,83.35
2022-12-15T15:42:32.650Z,83.08
2022-12-15T15:44:36.202Z,83.13
2022-12-15T15:46:46.613Z,83.54
2022-12-15T15:48:52.086Z,82.90
2022-12-15T15:50:55.922Z,83.25
2022-12-15T15:53:03.135Z,83.25
2022-12-15T15:55:07.416Z,83.56
2022-12-15T15:57:14.493Z,83.09
2022-12-15T15:59:21.047Z,83.66
2022-12-15T16:08:48.894Z,83.45
2022-12-15T16:10:52.618Z,84.25
2022-12-15T16:12:58.022Z,83.66
2022-12-15T16:15:01.086Z,84.08
2022-12-15T16:17:04.822Z,83.84
2022-12-15T16:19:08.029Z,83.72
2022-12-15T16:21:11.788Z,83.73
2022-12-15T16:23:16.562Z,84.03
2022-12-15T16:25:25.675Z,83.90
2022-12-15T16:27:28.933Z,84.02
2022-12-15T16:29:32.089Z,83.96
2022-12-15T16:31:41.332Z,84.22
2022-12-15T16:33:46.763Z,84.18
2022-12-15T16:35:50.945Z,84.53
2022-12-15T16:37:54.144Z,84.65
2022-12-15T16:39:57.308Z,84.63
2022-12-15T16:42:01.981Z,84.47
2022-12-15T16:44:05.926Z,84.72
2022-12-15T16:46:12.638Z,84.26
2022-12-15T16:48:16.288Z,84.12
2022-12-15T16:50:21.096Z,84.62
2022-12-15T16:52:24.419Z,84.60
2022-12-15T16:54:28.585Z,84.20
2022-12-15T16:56:31.799Z,84.34
2022-12-15T16:58:37.166Z,83.66
2022-12-15T17:00:40.366Z,83.98
2022-12-15T17:02:44.535Z,84.18
2022-12-15T17:04:47.852Z,84.13
2022-12-15T17:06:52.571Z,84.08
2022-12-15T17:08:56.418Z,84.02
2022-12-15T17:10:59.942Z,83.65
2022-12-15T17:13:06.004Z,83.50
2022-12-15T17:15:17.695Z,83.62
2022-12-15T17:17:21.276Z,84.04
2022-12-15T17:19:27.303Z,83.91
2022-12-15T17:21:31.863Z,82.96
2022-12-15T17:23:36.357Z,83.62
2022-12-15T17:28:05.587Z,83.42
2022-12-15T17:30:15.133Z,82.94
2022-12-15T17:32:18.449Z,83.53
2022-12-15T17:34:27.458Z,83.07
2022-12-15T17:36:30.595Z,83.42
2022-12-15T17:38:33.852Z,82.76
2022-12-15T17:40:37.108Z,82.77
2022-12-15T17:42:40.455Z,82.30
2022-12-15T17:44:46.727Z,82.60
2022-12-15T17:46:51.940Z,82.49
2022-12-15T17:49:00.941Z,82.71
2022-12-15T17:51:04.186Z,82.76
2022-12-15T17:53:07.675Z,82.66
2022-12-15T17:55:23.635Z,82.17
2022-12-15T17:57:27.057Z,82.20
2022-12-15T17:59:32.260Z,82.35
2022-12-15T18:01:35.514Z,82.46
2022-12-15T18:03:40.391Z,82.45
2022-12-15T18:05:43.839Z,82.35
2022-12-15T18:07:50.049Z,82.87
2022-12-15T18:09:53.573Z,82.97
2022-12-15T18:11:56.865Z,83.27
2022-12-15T18:14:00.427Z,82.72
2022-12-15T18:16:03.801Z,82.61
2022-12-15T18:18:09.590Z,82.77
2022-12-15T18:20:14.425Z,82.38
2022-12-15T18:22:21.105Z,82.70
2022-12-15T18:24:27.012Z,82.73
2022-12-15T18:26:31.544Z,82.83
2022-12-15T18:28:36.282Z,82.38
2022-12-15T18:30:39.559Z,81.70
2022-12-15T18:32:42.847Z,81.84
2022-12-15T18:34:46.738Z,82.03
2022-12-15T18:36:51.589Z,81.93
2022-12-15T18:38:54.930Z,82.46
2022-12-15T18:40:59.813Z,81.81
2022-12-15T18:43:03.029Z,82.41
2022-12-15T18:45:16.718Z,82.78
2022-12-15T18:47:21.332Z,81.95
2022-12-15T18:49:25.073Z,82.11
2022-12-15T18:51:28.999Z,81.96
2022-12-15T18:53:35.656Z,82.08
2022-12-15T18:55:39.017Z,82.01
2022-12-15T18:57:42.558Z,82.27
2022-12-15T18:59:45.727Z,82.33
2022-12-15T19:01:50.028Z,81.97
2022-12-15T19:03:53.442Z,82.14
2022-12-15T19:05:59.962Z,81.94
2022-12-15T19:08:10.027Z,81.74
2022-12-15T19:10:16.118Z,81.82
2022-12-15T19:12:19.664Z,81.70
2022-12-15T19:14:36.885Z,81.92
2022-12-15T19:16:57.743Z,81.51
2022-12-15T19:19:18.596Z,81.73
2022-12-15T19:21:41.613Z,81.26
2022-12-15T19:23:44.914Z,81.84
2022-12-15T19:25:50.706Z,81.62
2022-12-15T19:27:58.658Z,81.83
2022-12-15T19:30:02.370Z,82.14
2022-12-15T19:32:05.921Z,82.45
2022-12-15T19:34:09.301Z,82.16
2022-12-15T19:36:15.435Z,82.20
2022-12-15T19:38:33.267Z,82.48
2022-12-15T19:40:38.770Z,82.12
2022-12-15T19:42:44.434Z,81.80
2022-12-15T19:44:48.531Z,82.13
2022-12-15T19:46:52.404Z,82.26
2022-12-15T19:48:55.631Z,82.12
2022-12-15T19:50:58.846Z,81.04
2022-12-15T19:53:03.462Z,81.22
2022-12-15T19:55:08.613Z,80.76
2022-12-15T19:57:13.743Z,81.35
2022-12-15T19:59:41.385Z,81.54
2022-12-15T20:01:44.829Z,81.52
2022-12-15T20:03:49.899Z,81.70
2022-12-15T20:05:54.192Z,81.23
2022-12-15T20:07:57.442Z,81.30
2022-12-15T20:10:00.809Z,81.87
2022-12-15T20:12:04.003Z,81.75
2022-12-15T20:14:11.433Z,82.43
2022-12-15T20:16:18.847Z,82.22
2022-12-15T20:18:22.170Z,82.54
2022-12-15T20:20:27.375Z,81.58
2022-12-15T20:22:30.586Z,81.28
2022-12-15T20:24:34.348Z,81.41
2022-12-15T20:26:39.488Z,81.69
2022-12-15T20:28:43.152Z,81.59
2022-12-15T20:30:46.995Z,80.96
2022-12-15T20:32:51.647Z,81.98
2022-12-15T20:34:54.868Z,81.77
2022-12-15T20:36:58.188Z,81.56
2022-12-15T20:39:01.451Z,81.18
2022-12-15T20:41:04.799Z,81.19
2022-12-15T20:43:13.230Z,80.54
2022-12-15T20:45:17.181Z,81.12
2022-12-15T20:47:22.250Z,80.31
2022-12-15T20:49:32.061Z,80.72
2022-12-15T20:51:35.370Z,80.33
2022-12-15T20:53:39.161Z,80.26
2022-12-15T20:55:42.395Z,79.23
2022-12-15T20:57:45.689Z,79.44
2022-12-15T20:59:48.983Z,79.94
2022-12-15T21:01:52.630Z,79.72
2022-12-15T21:03:59.048Z,79.89
2022-12-15T21:06:03.776Z,79.84
2022-12-15T21:08:15.665Z,79.73
2022-12-15T21:10:20.766Z,79.95
2022-12-15T21:12:26.528Z,79.63
2022-12-15T21:14:29.791Z,79.67
2022-12-15T21:16:33.937Z,79.45
2022-12-15T21:19:18.608Z,79.71
2022-12-15T21:21:03.017Z,78.94
2022-12-15T21:23:06.404Z,79.37
2022-12-15T21:25:18.448Z,78.97
2022-12-15T21:27:22.099Z,78.89
2022-12-15T21:29:26.975Z,79.05
2022-12-15T21:31:30.244Z,79.49
2022-12-15T21:33:33.613Z,79.16
2022-12-15T21:35:37.566Z,79.09
2022-12-15T21:37:43.282Z,78.78
2022-12-15T21:39:46.468Z,78.57
2022-12-15T21:41:49.851Z,78.90
2022-12-15T21:43:54.977Z,79.12
2022-12-15T21:45:58.641Z,79.70
2022-12-15T21:48:19.095Z,79.00
2022-12-15T21:50:22.433Z,78.37
2022-12-15T21:52:26.981Z,78.32
2022-12-15T21:54:34.039Z,78.74
2022-12-15T21:56:37.193Z,78.88
2022-12-15T21:58:40.377Z,78.69
2022-12-15T22:00:45.726Z,78.71
2022-12-15T22:02:50.761Z,79.35
2022-12-15T22:04:55.067Z,78.87
2022-12-15T22:06:58.565Z,78.09
2022-12-15T22:09:01.705Z,78.22
2022-12-15T22:11:17.834Z,78.18
2022-12-15T22:13:22.731Z,79.11
2022-12-15T22:15:26.350Z,79.41
2022-12-15T22:17:29.731Z,79.24
2022-12-15T22:19:32.977Z,79.27
2022-12-15T22:21:36.173Z,79.57
2022-12-15T22:23:39.330Z,80.11
2022-12-15T22:25:42.851Z,80.12
2022-12-15T22:27:47.585Z,80.25
2022-12-15T22:29:51.044Z,80.78
2022-12-15T22:31:55.016Z,81.31
2022-12-15T22:33:58.356Z,81.21
2022-12-15T22:36:01.564Z,81.44
2022-12-15T22:38:04.697Z,81.57
2022-12-15T22:40:08.962Z,81.43
2022-12-15T22:42:16.060Z,81.34
2022-12-15T22:44:23.186Z,81.89
2022-12-15T22:46:26.388Z,81.80
2022-12-15T22:48:34.439Z,82.61
2022-12-15T22:50:37.703Z,82.40
2022-12-15T22:52:40.842Z,82.23
2022-12-15T22:54:45.907Z,82.89
2022-12-15T22:56:51.995Z,83.12
2022-12-15T22:58:58.590Z,83.05
2022-12-15T23:01:03.532Z,82.74
2022-12-15T23:03:09.166Z,83.73
2022-12-15T23:05:15.182Z,83.87
2022-12-15T23:07:19.860Z,83.64
2022-12-15T23:09:23.033Z,83.46
2022-12-15T23:11:37.093Z,83.78
2022-12-15T23:13:40.255Z,84.09
2022-12-15T23:16:01.561Z,84.40
2022-12-15T23:18:06.375Z,84.92
2022-12-15T23:20:10.817Z,84.88
2022-12-15T23:22:14.649Z,85.18
2022-12-15T23:24:17.901Z,85.36
2022-12-15T23:26:23.309Z,85.83
2022-12-15T23:28:27.698Z,85.55
2022-12-15T23:30:31.171Z,86.26
2022-12-15T23:32:34.538Z,86.58
2022-12-15T23:34:39.250Z,86.38
2022-12-15T23:36:42.532Z,86.43
2022-12-15T23:38:46.361Z,86.40
2022-12-15T23:40:52.692Z,86.25
2022-12-15T23:42:56.215Z,85.84
2022-12-15T23:44:59.494Z,85.10
2022-12-15T23:47:02.756Z,84.62
2022-12-15T23:49:06.711Z,84.81
2022-12-15T23:51:16.204Z,84.45
2022-12-15T23:53:19.385Z,84.38
2022-12-15T23:55:22.544Z,84.45
2022-12-15T23:57:25.791Z,84.88
2022-12-15T23:59:29.191Z,84.62
